sensor_id;sensor_type;location;lat;lon;timestamp;P1;durP1;ratioP1;P2;durP2;ratioP2
75112;SDS011;63692;47.338;8.520;2023-07-02T04:39:18;8.88;;;5.00;;
75112;SDS011;63692;47.338;8.520;2023-07-02T05:12:19;8.35;;;4.70;;
75112;SDS011;63692;47.338;8.520;2023-07-02T05:29:57;8.90;;;5.35;;
75112;SDS011;63692;47.338;8.520;2023-07-02T05:34:49;8.52;;;5.22;;
75112;SDS011;63692;47.338;8.520;2023-07-02T05:37:15;8.77;;;5.32;;
75112;SDS011;63692;47.338;8.520;2023-07-02T05:39:41;9.48;;;5.47;;
75112;SDS011;63692;47.338;8.520;2023-07-02T05:42:06;10.15;;;5.32;;
75112;SDS011;63692;47.338;8.520;2023-07-02T05:44:34;9.45;;;5.43;;
75112;SDS011;63692;47.338;8.520;2023-07-02T05:47:00;8.68;;;5.20;;
75112;SDS011;63692;47.338;8.520;2023-07-02T05:52:37;8.23;;;5.03;;
75112;SDS011;63692;47.338;8.520;2023-07-02T05:55:03;9.75;;;5.07;;
75112;SDS011;63692;47.338;8.520;2023-07-02T05:57:35;8.10;;;5.60;;
75112;SDS011;63692;47.338;8.520;2023-07-02T06:00:03;8.35;;;4.90;;
75112;SDS011;63692;47.338;8.520;2023-07-02T06:02:29;7.97;;;5.22;;
75112;SDS011;63692;47.338;8.520;2023-07-02T06:04:56;8.68;;;5.13;;
75112;SDS011;63692;47.338;8.520;2023-07-02T06:07:22;9.82;;;5.95;;
75112;SDS011;63692;47.338;8.520;2023-07-02T06:09:49;13.73;;;5.93;;
75112;SDS011;63692;47.338;8.520;2023-07-02T06:12:14;10.20;;;5.90;;
75112;SDS011;63692;47.338;8.520;2023-07-02T06:14:40;9.63;;;5.85;;
75112;SDS011;63692;47.338;8.520;2023-07-02T06:17:07;9.27;;;5.75;;
75112;SDS011;63692;47.338;8.520;2023-07-02T06:19:33;10.40;;;6.57;;
75112;SDS011;63692;47.338;8.520;2023-07-02T06:21:59;10.45;;;6.18;;
75112;SDS011;63692;47.338;8.520;2023-07-02T06:24:24;10.82;;;5.65;;
75112;SDS011;63692;47.338;8.520;2023-07-02T06:26:50;11.60;;;5.85;;
75112;SDS011;63692;47.338;8.520;2023-07-02T06:29:16;9.98;;;6.82;;
75112;SDS011;63692;47.338;8.520;2023-07-02T06:31:41;9.95;;;6.13;;
75112;SDS011;63692;47.338;8.520;2023-07-02T06:34:07;11.27;;;6.13;;
75112;SDS011;63692;47.338;8.520;2023-07-02T06:36:33;13.13;;;6.47;;
75112;SDS011;63692;47.338;8.520;2023-07-02T06:38:59;9.93;;;6.50;;
75112;SDS011;63692;47.338;8.520;2023-07-02T06:41:25;9.07;;;6.15;;
75112;SDS011;63692;47.338;8.520;2023-07-02T06:43:50;10.40;;;6.43;;
75112;SDS011;63692;47.338;8.520;2023-07-02T06:46:16;11.15;;;6.50;;
75112;SDS011;63692;47.338;8.520;2023-07-02T06:48:42;10.32;;;6.25;;
75112;SDS011;63692;47.338;8.520;2023-07-02T06:51:07;11.00;;;6.65;;
75112;SDS011;63692;47.338;8.520;2023-07-02T06:53:33;9.52;;;6.43;;
75112;SDS011;63692;47.338;8.520;2023-07-02T06:55:59;11.93;;;6.45;;
75112;SDS011;63692;47.338;8.520;2023-07-02T06:58:24;10.98;;;6.53;;
75112;SDS011;63692;47.338;8.520;2023-07-02T07:00:50;13.82;;;7.43;;
75112;SDS011;63692;47.338;8.520;2023-07-02T07:03:16;11.60;;;7.03;;
75112;SDS011;63692;47.338;8.520;2023-07-02T07:05:41;11.02;;;7.28;;
75112;SDS011;63692;47.338;8.520;2023-07-02T07:08:07;12.05;;;6.68;;
75112;SDS011;63692;47.338;8.520;2023-07-02T07:10:32;9.35;;;6.75;;
75112;SDS011;63692;47.338;8.520;2023-07-02T07:13:00;11.38;;;6.75;;
75112;SDS011;63692;47.338;8.520;2023-07-02T07:15:34;10.48;;;7.22;;
75112;SDS011;63692;47.338;8.520;2023-07-02T07:18:00;13.63;;;6.97;;
75112;SDS011;63692;47.338;8.520;2023-07-02T07:20:26;11.63;;;7.10;;
75112;SDS011;63692;47.338;8.520;2023-07-02T07:22:51;12.07;;;6.75;;
75112;SDS011;63692;47.338;8.520;2023-07-02T07:25:17;10.48;;;7.50;;
75112;SDS011;63692;47.338;8.520;2023-07-02T07:27:45;11.63;;;7.47;;
75112;SDS011;63692;47.338;8.520;2023-07-02T07:30:11;11.60;;;7.43;;
75112;SDS011;63692;47.338;8.520;2023-07-02T07:32:37;12.45;;;7.10;;
75112;SDS011;63692;47.338;8.520;2023-07-02T07:35:03;13.07;;;7.78;;
75112;SDS011;63692;47.338;8.520;2023-07-02T07:37:29;14.25;;;7.45;;
75112;SDS011;63692;47.338;8.520;2023-07-02T07:39:54;11.90;;;7.05;;
75112;SDS011;63692;47.338;8.520;2023-07-02T07:42:20;15.90;;;7.65;;
75112;SDS011;63692;47.338;8.520;2023-07-02T07:44:46;12.32;;;7.53;;
75112;SDS011;63692;47.338;8.520;2023-07-02T07:47:11;12.63;;;8.55;;
75112;SDS011;63692;47.338;8.520;2023-07-02T07:49:37;16.20;;;8.25;;
75112;SDS011;63692;47.338;8.520;2023-07-02T07:52:03;13.75;;;8.65;;
75112;SDS011;63692;47.338;8.520;2023-07-02T07:54:31;15.90;;;8.77;;
75112;SDS011;63692;47.338;8.520;2023-07-02T07:56:57;19.67;;;9.43;;
75112;SDS011;63692;47.338;8.520;2023-07-02T07:59:23;15.65;;;9.60;;
75112;SDS011;63692;47.338;8.520;2023-07-02T08:01:48;18.17;;;9.50;;
75112;SDS011;63692;47.338;8.520;2023-07-02T08:04:14;18.98;;;10.50;;
75112;SDS011;63692;47.338;8.520;2023-07-02T08:06:40;19.73;;;10.13;;
75112;SDS011;63692;47.338;8.520;2023-07-02T08:09:05;19.02;;;9.25;;
75112;SDS011;63692;47.338;8.520;2023-07-02T08:11:31;22.58;;;10.70;;
75112;SDS011;63692;47.338;8.520;2023-07-02T08:13:57;18.83;;;11.10;;
75112;SDS011;63692;47.338;8.520;2023-07-02T08:16:22;18.88;;;10.75;;
75112;SDS011;63692;47.338;8.520;2023-07-02T08:18:48;21.45;;;10.63;;
75112;SDS011;63692;47.338;8.520;2023-07-02T08:21:13;19.70;;;11.02;;
75112;SDS011;63692;47.338;8.520;2023-07-02T08:23:39;19.73;;;11.82;;
75112;SDS011;63692;47.338;8.520;2023-07-02T08:26:07;20.85;;;11.15;;
75112;SDS011;63692;47.338;8.520;2023-07-02T08:28:32;23.58;;;11.52;;
75112;SDS011;63692;47.338;8.520;2023-07-02T08:30:58;20.98;;;11.55;;
75112;SDS011;63692;47.338;8.520;2023-07-02T08:33:24;19.20;;;11.20;;
75112;SDS011;63692;47.338;8.520;2023-07-02T08:35:49;24.63;;;11.88;;
75112;SDS011;63692;47.338;8.520;2023-07-02T08:38:15;26.00;;;12.55;;
75112;SDS011;63692;47.338;8.520;2023-07-02T08:40:40;27.05;;;11.73;;
75112;SDS011;63692;47.338;8.520;2023-07-02T08:43:06;25.90;;;12.95;;
75112;SDS011;63692;47.338;8.520;2023-07-02T08:45:32;23.58;;;12.60;;
75112;SDS011;63692;47.338;8.520;2023-07-02T08:47:58;23.02;;;12.25;;
75112;SDS011;63692;47.338;8.520;2023-07-02T08:50:23;25.05;;;12.85;;
75112;SDS011;63692;47.338;8.520;2023-07-02T08:52:50;24.50;;;13.18;;
75112;SDS011;63692;47.338;8.520;2023-07-02T08:55:17;26.48;;;13.45;;
75112;SDS011;63692;47.338;8.520;2023-07-02T08:57:47;25.25;;;13.45;;
75112;SDS011;63692;47.338;8.520;2023-07-02T09:00:17;25.42;;;12.73;;
75112;SDS011;63692;47.338;8.520;2023-07-02T09:02:43;26.48;;;13.20;;
75112;SDS011;63692;47.338;8.520;2023-07-02T09:05:09;25.48;;;14.02;;
75112;SDS011;63692;47.338;8.520;2023-07-02T09:07:45;23.77;;;13.48;;
75112;SDS011;63692;47.338;8.520;2023-07-02T09:10:11;24.17;;;13.20;;
75112;SDS011;63692;47.338;8.520;2023-07-02T09:12:37;22.55;;;12.50;;
75112;SDS011;63692;47.338;8.520;2023-07-02T09:15:04;22.77;;;12.60;;
75112;SDS011;63692;47.338;8.520;2023-07-02T09:17:34;25.95;;;13.73;;
75112;SDS011;63692;47.338;8.520;2023-07-02T09:20:02;24.17;;;13.52;;
75112;SDS011;63692;47.338;8.520;2023-07-02T09:22:32;25.92;;;13.90;;
75112;SDS011;63692;47.338;8.520;2023-07-02T09:24:58;22.17;;;12.25;;
75112;SDS011;63692;47.338;8.520;2023-07-02T09:30:08;27.50;;;13.75;;
75112;SDS011;63692;47.338;8.520;2023-07-02T09:32:35;24.23;;;13.02;;
75112;SDS011;63692;47.338;8.520;2023-07-02T09:35:01;26.02;;;13.18;;
75112;SDS011;63692;47.338;8.520;2023-07-02T09:37:27;27.65;;;13.00;;
75112;SDS011;63692;47.338;8.520;2023-07-02T09:39:53;21.02;;;12.45;;
75112;SDS011;63692;47.338;8.520;2023-07-02T09:42:20;24.73;;;13.48;;
75112;SDS011;63692;47.338;8.520;2023-07-02T09:44:46;22.95;;;13.18;;
75112;SDS011;63692;47.338;8.520;2023-07-02T09:47:13;25.75;;;13.15;;
75112;SDS011;63692;47.338;8.520;2023-07-02T09:49:43;24.77;;;13.25;;
75112;SDS011;63692;47.338;8.520;2023-07-02T09:52:17;25.10;;;12.57;;
75112;SDS011;63692;47.338;8.520;2023-07-02T09:54:44;27.50;;;13.30;;
75112;SDS011;63692;47.338;8.520;2023-07-02T09:57:10;30.92;;;15.77;;
75112;SDS011;63692;47.338;8.520;2023-07-02T09:59:35;30.88;;;15.68;;
75112;SDS011;63692;47.338;8.520;2023-07-02T10:02:03;33.88;;;16.10;;
75112;SDS011;63692;47.338;8.520;2023-07-02T10:04:38;28.10;;;15.32;;
75112;SDS011;63692;47.338;8.520;2023-07-02T11:06:22;28.90;;;15.00;;
75112;SDS011;63692;47.338;8.520;2023-07-02T11:16:36;25.30;;;14.35;;
75112;SDS011;63692;47.338;8.520;2023-07-02T12:28:01;13.52;;;9.20;;
75112;SDS011;63692;47.338;8.520;2023-07-02T12:30:28;14.63;;;9.38;;
75112;SDS011;63692;47.338;8.520;2023-07-02T12:32:53;16.95;;;9.18;;
75112;SDS011;63692;47.338;8.520;2023-07-02T12:35:19;16.50;;;9.45;;
75112;SDS011;63692;47.338;8.520;2023-07-02T12:37:45;16.95;;;9.48;;
75112;SDS011;63692;47.338;8.520;2023-07-02T12:40:12;16.40;;;9.73;;
75112;SDS011;63692;47.338;8.520;2023-07-02T12:42:40;14.20;;;9.00;;
75112;SDS011;63692;47.338;8.520;2023-07-02T12:45:06;16.25;;;9.00;;
75112;SDS011;63692;47.338;8.520;2023-07-02T12:47:32;14.40;;;8.57;;
75112;SDS011;63692;47.338;8.520;2023-07-02T12:49:58;14.02;;;8.90;;
75112;SDS011;63692;47.338;8.520;2023-07-02T12:52:24;15.45;;;9.00;;
75112;SDS011;63692;47.338;8.520;2023-07-02T12:54:49;15.77;;;9.20;;
75112;SDS011;63692;47.338;8.520;2023-07-02T12:57:16;15.05;;;8.70;;
75112;SDS011;63692;47.338;8.520;2023-07-02T12:59:42;15.15;;;9.02;;
75112;SDS011;63692;47.338;8.520;2023-07-02T13:02:09;14.15;;;8.32;;
75112;SDS011;63692;47.338;8.520;2023-07-02T13:04:35;14.63;;;9.25;;
75112;SDS011;63692;47.338;8.520;2023-07-02T13:07:01;19.70;;;8.60;;
75112;SDS011;63692;47.338;8.520;2023-07-02T13:09:27;14.00;;;8.35;;
75112;SDS011;63692;47.338;8.520;2023-07-02T13:11:53;18.52;;;9.98;;
75112;SDS011;63692;47.338;8.520;2023-07-02T13:14:19;16.30;;;9.95;;
75112;SDS011;63692;47.338;8.520;2023-07-02T13:16:45;23.45;;;9.48;;
75112;SDS011;63692;47.338;8.520;2023-07-02T13:19:10;15.32;;;9.73;;
75112;SDS011;63692;47.338;8.520;2023-07-02T13:21:36;20.10;;;9.95;;
75112;SDS011;63692;47.338;8.520;2023-07-02T13:24:02;16.15;;;9.88;;
75112;SDS011;63692;47.338;8.520;2023-07-02T13:26:27;21.83;;;9.80;;
75112;SDS011;63692;47.338;8.520;2023-07-02T13:28:53;15.00;;;9.93;;
75112;SDS011;63692;47.338;8.520;2023-07-02T13:31:19;14.50;;;9.40;;
75112;SDS011;63692;47.338;8.520;2023-07-02T13:33:44;16.08;;;10.20;;
75112;SDS011;63692;47.338;8.520;2023-07-02T13:36:14;16.50;;;9.13;;
75112;SDS011;63692;47.338;8.520;2023-07-02T13:38:40;15.55;;;9.70;;
75112;SDS011;63692;47.338;8.520;2023-07-02T13:41:05;15.00;;;9.13;;
75112;SDS011;63692;47.338;8.520;2023-07-02T13:43:31;17.92;;;9.38;;
75112;SDS011;63692;47.338;8.520;2023-07-02T13:45:56;15.93;;;9.82;;
75112;SDS011;63692;47.338;8.520;2023-07-02T13:48:22;16.55;;;9.40;;
75112;SDS011;63692;47.338;8.520;2023-07-02T13:50:48;17.17;;;9.57;;
75112;SDS011;63692;47.338;8.520;2023-07-02T13:53:13;15.73;;;9.43;;
75112;SDS011;63692;47.338;8.520;2023-07-02T13:55:39;15.77;;;9.63;;
75112;SDS011;63692;47.338;8.520;2023-07-02T13:58:04;14.73;;;8.98;;
75112;SDS011;63692;47.338;8.520;2023-07-02T14:00:30;17.20;;;9.50;;
75112;SDS011;63692;47.338;8.520;2023-07-02T14:02:56;16.85;;;9.20;;
75112;SDS011;63692;47.338;8.520;2023-07-02T14:05:22;19.50;;;9.15;;
75112;SDS011;63692;47.338;8.520;2023-07-02T14:07:48;17.58;;;9.15;;
75112;SDS011;63692;47.338;8.520;2023-07-02T14:10:14;14.93;;;9.07;;
75112;SDS011;63692;47.338;8.520;2023-07-02T14:12:40;17.30;;;9.30;;
75112;SDS011;63692;47.338;8.520;2023-07-02T14:15:08;16.73;;;8.48;;
75112;SDS011;63692;47.338;8.520;2023-07-02T14:17:35;15.70;;;8.90;;
75112;SDS011;63692;47.338;8.520;2023-07-02T14:20:01;17.08;;;9.55;;
75112;SDS011;63692;47.338;8.520;2023-07-02T14:22:28;14.63;;;8.93;;
75112;SDS011;63692;47.338;8.520;2023-07-02T14:24:54;16.20;;;9.63;;
75112;SDS011;63692;47.338;8.520;2023-07-02T14:27:19;15.95;;;9.15;;
75112;SDS011;63692;47.338;8.520;2023-07-02T14:29:45;14.05;;;9.57;;
75112;SDS011;63692;47.338;8.520;2023-07-02T14:32:14;17.80;;;9.70;;
75112;SDS011;63692;47.338;8.520;2023-07-02T14:34:40;16.40;;;10.00;;
75112;SDS011;63692;47.338;8.520;2023-07-02T14:37:06;16.88;;;10.38;;
75112;SDS011;63692;47.338;8.520;2023-07-02T14:39:31;23.80;;;10.43;;
75112;SDS011;63692;47.338;8.520;2023-07-02T14:41:57;18.45;;;11.15;;
75112;SDS011;63692;47.338;8.520;2023-07-02T14:44:24;21.15;;;11.38;;
75112;SDS011;63692;47.338;8.520;2023-07-02T14:46:50;18.05;;;10.98;;
75112;SDS011;63692;47.338;8.520;2023-07-02T14:49:17;18.58;;;11.13;;
75112;SDS011;63692;47.338;8.520;2023-07-02T14:51:44;18.50;;;11.55;;
75112;SDS011;63692;47.338;8.520;2023-07-02T14:54:10;18.70;;;11.57;;
75112;SDS011;63692;47.338;8.520;2023-07-02T14:56:35;20.08;;;11.10;;
75112;SDS011;63692;47.338;8.520;2023-07-02T14:59:02;17.35;;;10.90;;
75112;SDS011;63692;47.338;8.520;2023-07-02T15:01:28;17.60;;;10.60;;
75112;SDS011;63692;47.338;8.520;2023-07-02T15:03:54;16.50;;;11.02;;
75112;SDS011;63692;47.338;8.520;2023-07-02T15:06:20;20.02;;;11.05;;
75112;SDS011;63692;47.338;8.520;2023-07-02T15:08:45;16.98;;;10.57;;
75112;SDS011;63692;47.338;8.520;2023-07-02T15:11:12;19.02;;;11.50;;
75112;SDS011;63692;47.338;8.520;2023-07-02T15:13:39;16.40;;;11.07;;
75112;SDS011;63692;47.338;8.520;2023-07-02T15:16:06;20.92;;;11.68;;
75112;SDS011;63692;47.338;8.520;2023-07-02T15:18:32;19.02;;;10.88;;
75112;SDS011;63692;47.338;8.520;2023-07-02T15:20:57;15.70;;;10.25;;
75112;SDS011;63692;47.338;8.520;2023-07-02T15:23:24;15.38;;;9.70;;
75112;SDS011;63692;47.338;8.520;2023-07-02T15:28:20;17.67;;;9.93;;
75112;SDS011;63692;47.338;8.520;2023-07-02T15:30:47;14.65;;;9.45;;
75112;SDS011;63692;47.338;8.520;2023-07-02T15:33:16;16.92;;;9.52;;
75112;SDS011;63692;47.338;8.520;2023-07-02T15:35:42;20.10;;;9.52;;
75112;SDS011;63692;47.338;8.520;2023-07-02T15:38:07;13.68;;;9.40;;
75112;SDS011;63692;47.338;8.520;2023-07-02T15:40:33;15.85;;;9.40;;
75112;SDS011;63692;47.338;8.520;2023-07-02T15:42:58;14.02;;;9.20;;
75112;SDS011;63692;47.338;8.520;2023-07-02T15:45:24;12.85;;;9.68;;
75112;SDS011;63692;47.338;8.520;2023-07-02T15:47:50;12.15;;;8.70;;
75112;SDS011;63692;47.338;8.520;2023-07-02T15:50:15;12.57;;;8.63;;
75112;SDS011;63692;47.338;8.520;2023-07-02T15:52:41;11.00;;;8.18;;
75112;SDS011;63692;47.338;8.520;2023-07-02T15:55:07;10.45;;;7.82;;
75112;SDS011;63692;47.338;8.520;2023-07-02T15:57:32;12.02;;;7.35;;
75112;SDS011;63692;47.338;8.520;2023-07-02T15:59:58;11.73;;;7.30;;
75112;SDS011;63692;47.338;8.520;2023-07-02T16:02:24;10.57;;;6.72;;
75112;SDS011;63692;47.338;8.520;2023-07-02T16:04:49;12.65;;;7.20;;
75112;SDS011;63692;47.338;8.520;2023-07-02T16:07:15;11.65;;;7.10;;
75112;SDS011;63692;47.338;8.520;2023-07-02T16:09:41;10.32;;;7.47;;
75112;SDS011;63692;47.338;8.520;2023-07-02T16:12:07;10.05;;;7.28;;
75112;SDS011;63692;47.338;8.520;2023-07-02T16:14:33;11.80;;;7.70;;
75112;SDS011;63692;47.338;8.520;2023-07-02T16:16:59;12.27;;;7.95;;
75112;SDS011;63692;47.338;8.520;2023-07-02T16:19:25;11.98;;;8.20;;
75112;SDS011;63692;47.338;8.520;2023-07-02T16:21:51;11.38;;;7.55;;
75112;SDS011;63692;47.338;8.520;2023-07-02T16:24:24;17.55;;;8.75;;
75112;SDS011;63692;47.338;8.520;2023-07-02T16:26:55;12.95;;;8.23;;
75112;SDS011;63692;47.338;8.520;2023-07-02T16:29:21;11.63;;;7.88;;
75112;SDS011;63692;47.338;8.520;2023-07-02T16:31:49;12.07;;;8.18;;
75112;SDS011;63692;47.338;8.520;2023-07-02T16:34:18;12.50;;;7.55;;
75112;SDS011;63692;47.338;8.520;2023-07-02T16:36:44;10.23;;;7.00;;
75112;SDS011;63692;47.338;8.520;2023-07-02T16:39:13;10.98;;;6.82;;
75112;SDS011;63692;47.338;8.520;2023-07-02T16:41:40;10.55;;;6.97;;
75112;SDS011;63692;47.338;8.520;2023-07-02T16:44:17;10.88;;;7.15;;
75112;SDS011;63692;47.338;8.520;2023-07-02T16:46:44;11.45;;;7.50;;
75112;SDS011;63692;47.338;8.520;2023-07-02T16:49:11;12.57;;;7.70;;
75112;SDS011;63692;47.338;8.520;2023-07-02T16:51:37;10.50;;;7.43;;
75112;SDS011;63692;47.338;8.520;2023-07-02T16:54:07;11.35;;;7.32;;
75112;SDS011;63692;47.338;8.520;2023-07-02T16:56:34;10.35;;;7.22;;
75112;SDS011;63692;47.338;8.520;2023-07-02T16:59:00;11.20;;;7.30;;
75112;SDS011;63692;47.338;8.520;2023-07-02T17:01:27;11.82;;;7.45;;
75112;SDS011;63692;47.338;8.520;2023-07-02T17:03:53;11.00;;;7.10;;
75112;SDS011;63692;47.338;8.520;2023-07-02T17:06:18;12.10;;;7.40;;
75112;SDS011;63692;47.338;8.520;2023-07-02T17:08:44;10.23;;;7.20;;
75112;SDS011;63692;47.338;8.520;2023-07-02T17:11:10;11.27;;;6.95;;
75112;SDS011;63692;47.338;8.520;2023-07-02T17:13:37;11.27;;;7.28;;
75112;SDS011;63692;47.338;8.520;2023-07-02T17:16:03;11.13;;;7.03;;
75112;SDS011;63692;47.338;8.520;2023-07-02T17:18:33;12.60;;;7.72;;
75112;SDS011;63692;47.338;8.520;2023-07-02T17:20:59;11.52;;;7.38;;
75112;SDS011;63692;47.338;8.520;2023-07-02T17:23:25;13.00;;;7.97;;
75112;SDS011;63692;47.338;8.520;2023-07-02T17:25:50;12.63;;;8.13;;
75112;SDS011;63692;47.338;8.520;2023-07-02T17:28:17;13.32;;;8.35;;
75112;SDS011;63692;47.338;8.520;2023-07-02T17:30:43;13.05;;;7.88;;
75112;SDS011;63692;47.338;8.520;2023-07-02T17:33:10;13.90;;;8.93;;
75112;SDS011;63692;47.338;8.520;2023-07-02T17:35:39;14.30;;;8.70;;
75112;SDS011;63692;47.338;8.520;2023-07-02T17:38:07;17.35;;;8.13;;
75112;SDS011;63692;47.338;8.520;2023-07-02T17:40:36;10.65;;;7.43;;
75112;SDS011;63692;47.338;8.520;2023-07-02T17:43:04;13.07;;;7.53;;
75112;SDS011;63692;47.338;8.520;2023-07-02T17:45:30;16.08;;;9.32;;
75112;SDS011;63692;47.338;8.520;2023-07-02T17:47:55;16.23;;;8.85;;
75112;SDS011;63692;47.338;8.520;2023-07-02T17:50:21;16.17;;;7.50;;
75112;SDS011;63692;47.338;8.520;2023-07-02T17:52:46;13.85;;;7.40;;
75112;SDS011;63692;47.338;8.520;2023-07-02T17:55:12;12.82;;;7.25;;
75112;SDS011;63692;47.338;8.520;2023-07-02T17:57:38;13.02;;;8.18;;
75112;SDS011;63692;47.338;8.520;2023-07-02T18:00:07;11.85;;;7.18;;
75112;SDS011;63692;47.338;8.520;2023-07-02T18:02:34;12.35;;;7.60;;
75112;SDS011;63692;47.338;8.520;2023-07-02T18:04:59;12.23;;;7.90;;
75112;SDS011;63692;47.338;8.520;2023-07-02T18:07:25;10.70;;;7.35;;
75112;SDS011;63692;47.338;8.520;2023-07-02T18:09:51;12.77;;;7.53;;
75112;SDS011;63692;47.338;8.520;2023-07-02T18:12:19;12.73;;;7.93;;
75112;SDS011;63692;47.338;8.520;2023-07-02T18:14:48;13.45;;;8.23;;
75112;SDS011;63692;47.338;8.520;2023-07-02T18:17:14;17.50;;;7.75;;
75112;SDS011;63692;47.338;8.520;2023-07-02T18:19:40;13.00;;;7.43;;
75112;SDS011;63692;47.338;8.520;2023-07-02T18:22:06;13.45;;;7.45;;
75112;SDS011;63692;47.338;8.520;2023-07-02T18:24:35;12.45;;;7.82;;
75112;SDS011;63692;47.338;8.520;2023-07-02T18:27:03;12.20;;;7.43;;
75112;SDS011;63692;47.338;8.520;2023-07-02T18:29:30;11.20;;;7.38;;
75112;SDS011;63692;47.338;8.520;2023-07-02T18:31:57;12.20;;;7.53;;
75112;SDS011;63692;47.338;8.520;2023-07-02T18:34:29;14.30;;;7.82;;
75112;SDS011;63692;47.338;8.520;2023-07-02T18:37:00;15.45;;;8.07;;
75112;SDS011;63692;47.338;8.520;2023-07-02T18:39:27;13.23;;;7.80;;
75112;SDS011;63692;47.338;8.520;2023-07-02T18:41:59;12.85;;;8.27;;
75112;SDS011;63692;47.338;8.520;2023-07-02T18:44:27;12.45;;;8.60;;
75112;SDS011;63692;47.338;8.520;2023-07-02T18:46:58;12.90;;;7.13;;
75112;SDS011;63692;47.338;8.520;2023-07-02T18:49:25;13.60;;;8.27;;
75112;SDS011;63692;47.338;8.520;2023-07-02T18:51:51;11.23;;;8.18;;
75112;SDS011;63692;47.338;8.520;2023-07-02T18:54:17;12.90;;;7.70;;
75112;SDS011;63692;47.338;8.520;2023-07-02T18:56:43;11.38;;;7.82;;
75112;SDS011;63692;47.338;8.520;2023-07-02T18:59:08;15.10;;;8.02;;
75112;SDS011;63692;47.338;8.520;2023-07-02T19:01:34;12.93;;;7.80;;
75112;SDS011;63692;47.338;8.520;2023-07-02T19:04:00;11.55;;;7.90;;
75112;SDS011;63692;47.338;8.520;2023-07-02T19:06:25;11.82;;;7.75;;
75112;SDS011;63692;47.338;8.520;2023-07-02T19:08:51;12.95;;;7.90;;
75112;SDS011;63692;47.338;8.520;2023-07-02T19:11:18;12.63;;;7.85;;
75112;SDS011;63692;47.338;8.520;2023-07-02T19:16:11;13.35;;;8.23;;
75112;SDS011;63692;47.338;8.520;2023-07-02T19:18:37;15.98;;;8.48;;
75112;SDS011;63692;47.338;8.520;2023-07-02T19:21:03;13.52;;;8.05;;
75112;SDS011;63692;47.338;8.520;2023-07-02T19:23:30;12.48;;;8.13;;
75112;SDS011;63692;47.338;8.520;2023-07-02T19:25:56;13.93;;;8.35;;
75112;SDS011;63692;47.338;8.520;2023-07-02T19:28:22;12.95;;;7.53;;
75112;SDS011;63692;47.338;8.520;2023-07-02T19:30:47;11.93;;;7.43;;
75112;SDS011;63692;47.338;8.520;2023-07-02T19:33:13;15.95;;;8.35;;
75112;SDS011;63692;47.338;8.520;2023-07-02T19:35:38;13.90;;;8.13;;
75112;SDS011;63692;47.338;8.520;2023-07-02T19:38:04;15.45;;;7.47;;
75112;SDS011;63692;47.338;8.520;2023-07-02T19:40:31;14.13;;;8.30;;
75112;SDS011;63692;47.338;8.520;2023-07-02T19:42:57;12.95;;;8.00;;
75112;SDS011;63692;47.338;8.520;2023-07-02T19:45:22;15.38;;;8.05;;
75112;SDS011;63692;47.338;8.520;2023-07-02T19:47:48;15.88;;;7.78;;
75112;SDS011;63692;47.338;8.520;2023-07-02T19:50:13;13.25;;;8.02;;
75112;SDS011;63692;47.338;8.520;2023-07-02T19:52:39;14.25;;;8.57;;
75112;SDS011;63692;47.338;8.520;2023-07-02T19:55:06;14.77;;;8.32;;
75112;SDS011;63692;47.338;8.520;2023-07-02T19:57:33;17.85;;;8.45;;
75112;SDS011;63692;47.338;8.520;2023-07-02T19:59:59;14.40;;;8.45;;
75112;SDS011;63692;47.338;8.520;2023-07-02T20:02:32;12.15;;;8.38;;
75112;SDS011;63692;47.338;8.520;2023-07-02T20:04:59;13.20;;;8.48;;
75112;SDS011;63692;47.338;8.520;2023-07-02T20:07:25;15.35;;;8.95;;
75112;SDS011;63692;47.338;8.520;2023-07-02T20:09:53;15.82;;;8.73;;
75112;SDS011;63692;47.338;8.520;2023-07-02T20:12:19;14.50;;;8.73;;
75112;SDS011;63692;47.338;8.520;2023-07-02T20:14:44;17.45;;;9.13;;
75112;SDS011;63692;47.338;8.520;2023-07-02T20:17:13;15.18;;;9.13;;
